createdAt,value
2019-03-18T00:01:01.820Z,83.83
2019-03-18T00:03:32.297Z,83.84
2019-03-18T00:06:02.776Z,83.83
2019-03-18T00:08:33.282Z,83.82
2019-03-18T00:11:03.945Z,83.83
2019-03-18T00:13:34.470Z,83.81
2019-03-18T00:16:05.080Z,83.82
2019-03-18T00:18:35.864Z,83.81
2019-03-18T00:21:06.386Z,83.83
2019-03-18T00:23:37.010Z,83.84
2019-03-18T00:26:10.105Z,83.83
2019-03-18T00:28:40.610Z,83.83
2019-03-18T00:31:13.068Z,83.83
2019-03-18T00:33:46.479Z,83.83
2019-03-18T00:36:22.590Z,83.84
2019-03-18T00:38:53.554Z,83.82
2019-03-18T00:41:29.685Z,83.83
2019-03-18T00:44:03.551Z,83.84
2019-03-18T00:46:34.192Z,83.85
2019-03-18T00:49:05.464Z,83.84
2019-03-18T00:51:36.401Z,83.84
2019-03-18T00:54:08.642Z,83.82
2019-03-18T00:56:39.618Z,83.83
2019-03-18T00:59:10.459Z,83.82
2019-03-18T01:01:41.144Z,83.83
2019-03-18T01:04:11.767Z,83.83
2019-03-18T01:06:42.319Z,83.83
2019-03-18T01:09:12.868Z,83.82
2019-03-18T01:11:43.649Z,83.85
2019-03-18T01:14:14.167Z,83.85
2019-03-18T01:16:46.098Z,83.84
2019-03-18T01:19:16.836Z,83.83
2019-03-18T01:21:49.043Z,83.83
2019-03-18T01:24:22.694Z,83.83
2019-03-18T01:27:00.389Z,83.81
2019-03-18T01:29:27.574Z,83.82
2019-03-18T01:31:58.053Z,83.80
2019-03-18T01:34:28.500Z,83.80
2019-03-18T01:36:59.184Z,83.80
2019-03-18T01:39:29.824Z,83.80
2019-03-18T01:42:00.417Z,83.79
2019-03-18T01:44:31.003Z,83.79
2019-03-18T01:47:02.254Z,83.79
2019-03-18T01:49:32.635Z,83.79
2019-03-18T01:52:04.696Z,83.79
2019-03-18T01:54:35.085Z,83.78
2019-03-18T01:57:05.608Z,83.77
2019-03-18T01:59:36.199Z,83.78
2019-03-18T02:02:07.159Z,83.77
2019-03-18T02:04:37.799Z,83.78
2019-03-18T02:07:08.384Z,83.77
2019-03-18T02:09:45.647Z,83.76
2019-03-18T02:12:15.951Z,83.76
2019-03-18T02:14:46.692Z,83.77
2019-03-18T02:17:17.223Z,83.75
2019-03-18T02:19:47.841Z,83.75
2019-03-18T02:22:18.318Z,83.75
2019-03-18T02:24:48.811Z,83.74
2019-03-18T02:27:19.495Z,83.74
2019-03-18T02:29:49.909Z,83.75
2019-03-18T02:32:20.336Z,83.74
2019-03-18T02:34:50.874Z,83.73
2019-03-18T02:37:21.368Z,83.73
2019-03-18T02:39:51.814Z,83.72
2019-03-18T02:42:24.186Z,83.72
2019-03-18T02:44:54.562Z,83.71
2019-03-18T02:47:43.787Z,83.72
2019-03-18T02:50:14.217Z,83.73
2019-03-18T02:53:03.054Z,83.72
2019-03-18T02:55:38.250Z,83.71
2019-03-18T02:58:08.653Z,83.70
2019-03-18T03:00:39.080Z,83.70
2019-03-18T03:03:09.436Z,83.70
2019-03-18T03:05:39.979Z,83.70
2019-03-18T03:08:11.240Z,83.70
2019-03-18T03:10:43.107Z,83.70
2019-03-18T03:13:14.957Z,83.71
2019-03-18T03:15:45.253Z,83.69
2019-03-18T03:18:15.623Z,83.69
2019-03-18T03:20:45.997Z,83.69
2019-03-18T03:23:17.814Z,83.68
2019-03-18T03:25:48.171Z,83.67
2019-03-18T03:28:18.517Z,83.68
2019-03-18T03:30:49.263Z,83.68
2019-03-18T03:33:19.581Z,83.69
2019-03-18T03:35:51.723Z,83.69
2019-03-18T03:38:22.770Z,83.70
2019-03-18T03:40:53.508Z,83.68
2019-03-18T03:43:23.946Z,83.69
2019-03-18T03:45:54.232Z,83.68
2019-03-18T03:48:24.586Z,83.68
2019-03-18T03:50:54.924Z,83.68
2019-03-18T03:53:25.233Z,83.68
2019-03-18T03:55:55.662Z,83.69
2019-03-18T03:58:26.305Z,83.67
2019-03-18T04:00:57.683Z,83.67
2019-03-18T04:03:38.230Z,83.64
2019-03-18T04:06:00.649Z,83.66
2019-03-18T04:08:30.846Z,83.65
2019-03-18T04:11:02.314Z,83.65
2019-03-18T04:13:32.727Z,83.67
2019-03-18T04:16:03.030Z,83.66
2019-03-18T04:18:33.354Z,83.64
2019-03-18T04:21:03.698Z,83.62
2019-03-18T04:23:34.307Z,83.61
2019-03-18T04:26:07.528Z,83.60
2019-03-18T04:28:37.857Z,83.61
2019-03-18T04:31:08.146Z,83.61
2019-03-18T04:33:39.274Z,83.61
2019-03-18T04:36:10.449Z,83.59
2019-03-18T04:38:40.785Z,83.59
2019-03-18T04:41:12.285Z,83.58
2019-03-18T04:43:43.008Z,83.47
2019-03-18T04:46:14.138Z,83.47
2019-03-18T04:48:45.707Z,83.58
2019-03-18T04:51:16.049Z,83.59
2019-03-18T04:53:46.475Z,83.59
2019-03-18T04:56:16.804Z,83.60
2019-03-18T04:58:50.479Z,83.59
2019-03-18T05:01:21.637Z,83.59
2019-03-18T05:03:52.186Z,83.60
2019-03-18T05:06:22.658Z,83.64
2019-03-18T05:08:53.233Z,83.60
2019-03-18T05:11:25.069Z,83.61
2019-03-18T05:13:55.515Z,83.63
2019-03-18T05:16:34.864Z,83.61
2019-03-18T05:19:05.418Z,83.61
2019-03-18T05:21:35.937Z,83.62
2019-03-18T05:24:24.973Z,83.59
2019-03-18T05:26:55.338Z,83.61
2019-03-18T05:29:25.693Z,83.62
2019-03-18T05:31:56.916Z,83.62
2019-03-18T05:34:32.032Z,83.61
2019-03-18T05:37:05.107Z,83.61
2019-03-18T05:39:35.596Z,83.60
2019-03-18T05:42:07.518Z,83.58
2019-03-18T05:44:38.050Z,83.59
2019-03-18T05:47:38.526Z,83.57
2019-03-18T05:50:01.399Z,83.56
2019-03-18T05:52:31.878Z,83.56
2019-03-18T05:55:02.231Z,83.53
2019-03-18T05:57:33.039Z,83.54
2019-03-18T06:00:03.463Z,83.53
2019-03-18T06:02:33.873Z,83.54
2019-03-18T06:05:04.823Z,83.53
2019-03-18T06:07:35.219Z,83.51
2019-03-18T06:10:06.507Z,83.54
2019-03-18T06:12:44.304Z,83.55
2019-03-18T06:15:18.437Z,83.57
2019-03-18T06:17:52.620Z,83.56
2019-03-18T06:20:21.244Z,83.59
2019-03-18T06:22:53.303Z,83.58
2019-03-18T06:25:23.803Z,83.60
2019-03-18T06:27:54.253Z,83.60
2019-03-18T06:30:24.958Z,83.62
2019-03-18T06:32:55.500Z,83.62
2019-03-18T06:35:25.996Z,83.60
2019-03-18T06:37:56.742Z,83.60
2019-03-18T06:40:29.052Z,83.59
2019-03-18T06:42:59.887Z,83.59
2019-03-18T06:45:30.334Z,83.58
2019-03-18T06:48:05.063Z,83.57
2019-03-18T06:50:33.039Z,83.56
2019-03-18T06:53:04.295Z,83.55
2019-03-18T06:55:34.666Z,83.57
2019-03-18T06:58:05.520Z,83.56
2019-03-18T07:00:35.950Z,83.57
2019-03-18T07:03:06.324Z,83.57
2019-03-18T07:05:40.526Z,83.61
2019-03-18T07:08:10.986Z,83.61
2019-03-18T07:10:49.702Z,83.61
2019-03-18T07:13:20.661Z,83.65
2019-03-18T07:15:51.660Z,83.63
2019-03-18T07:18:22.184Z,83.67
2019-03-18T07:20:53.390Z,83.69
2019-03-18T07:23:24.260Z,83.69
2019-03-18T07:25:55.895Z,83.68
2019-03-18T07:28:26.477Z,83.67
2019-03-18T07:30:58.391Z,83.68
2019-03-18T07:33:29.014Z,83.67
2019-03-18T07:36:00.418Z,83.68
2019-03-18T07:38:30.934Z,83.69
2019-03-18T07:41:01.433Z,83.68
2019-03-18T07:43:31.875Z,83.66
2019-03-18T07:46:04.155Z,83.67
2019-03-18T07:48:34.592Z,83.70
2019-03-18T07:51:07.292Z,83.75
2019-03-18T07:53:37.744Z,83.85
2019-03-18T07:56:08.452Z,83.89
2019-03-18T07:58:39.011Z,83.90
2019-03-18T08:01:10.065Z,83.93
2019-03-18T08:03:41.066Z,84.04
2019-03-18T08:06:11.718Z,84.12
2019-03-18T08:08:45.390Z,84.18
2019-03-18T08:11:16.436Z,84.15
2019-03-18T08:13:47.029Z,84.10
2019-03-18T08:16:17.960Z,84.04
2019-03-18T08:18:53.078Z,83.97
2019-03-18T08:21:23.537Z,83.95
2019-03-18T08:23:54.256Z,83.87
2019-03-18T08:26:27.089Z,83.87
2019-03-18T08:28:56.666Z,83.85
2019-03-18T08:31:27.211Z,83.83
2019-03-18T08:33:58.967Z,83.80
2019-03-18T08:36:31.763Z,83.79
2019-03-18T08:39:04.290Z,83.77
2019-03-18T08:41:34.776Z,83.76
2019-03-18T08:44:05.339Z,83.73
2019-03-18T08:46:35.900Z,83.73
2019-03-18T08:49:06.371Z,83.71
2019-03-18T08:51:36.832Z,83.71
2019-03-18T08:54:07.625Z,83.70
2019-03-18T08:56:38.266Z,83.71
2019-03-18T08:59:08.712Z,83.71
2019-03-18T09:01:39.263Z,83.73
2019-03-18T09:04:10.691Z,83.73
2019-03-18T09:06:43.466Z,83.72
2019-03-18T09:09:14.188Z,83.72
2019-03-18T09:11:48.791Z,83.73
2019-03-18T09:14:19.459Z,83.73
2019-03-18T09:16:55.866Z,83.70
2019-03-18T09:19:26.531Z,83.71
2019-03-18T09:21:57.140Z,83.68
2019-03-18T09:24:28.268Z,83.71
2019-03-18T09:27:02.678Z,83.72
2019-03-18T09:29:34.542Z,83.69
2019-03-18T09:32:08.612Z,83.71
2019-03-18T09:34:41.323Z,83.67
2019-03-18T09:37:12.135Z,83.60
2019-03-18T09:39:46.781Z,83.61
2019-03-18T09:42:18.118Z,83.60
2019-03-18T09:44:48.963Z,83.60
2019-03-18T09:47:19.707Z,83.59
2019-03-18T09:49:50.356Z,83.59
2019-03-18T09:52:20.873Z,83.59
2019-03-18T09:54:51.621Z,83.59
2019-03-18T09:57:26.259Z,83.59
2019-03-18T09:59:55.211Z,83.54
2019-03-18T10:02:26.004Z,83.53
2019-03-18T10:04:56.648Z,83.56
2019-03-18T10:07:27.150Z,83.55
2019-03-18T10:09:57.988Z,83.53
2019-03-18T10:12:28.580Z,83.56
2019-03-18T10:14:59.934Z,83.56
2019-03-18T10:17:30.659Z,83.56
2019-03-18T10:20:09.247Z,83.54
2019-03-18T10:22:43.183Z,83.55
2019-03-18T10:25:19.327Z,83.53
2019-03-18T10:27:49.785Z,83.52
2019-03-18T10:30:25.046Z,83.49
2019-03-18T10:32:55.980Z,83.51
2019-03-18T10:35:29.370Z,83.47
2019-03-18T10:37:59.742Z,83.46
2019-03-18T10:40:30.447Z,83.47
2019-03-18T10:43:01.372Z,83.44
2019-03-18T10:45:50.525Z,83.42
2019-03-18T10:48:20.873Z,83.42
2019-03-18T10:50:51.347Z,83.43
2019-03-18T10:53:23.417Z,83.40
2019-03-18T10:55:54.259Z,83.41
2019-03-18T10:58:24.638Z,83.38
2019-03-18T11:00:55.438Z,83.36
2019-03-18T11:03:26.020Z,83.34
2019-03-18T11:05:56.892Z,83.34
2019-03-18T11:08:27.532Z,83.33
2019-03-18T11:10:58.297Z,83.30
2019-03-18T11:13:33.606Z,83.29
2019-03-18T11:16:07.127Z,83.30
2019-03-18T11:19:05.304Z,83.29
2019-03-18T11:21:36.347Z,83.30
2019-03-18T11:24:06.846Z,83.31
2019-03-18T11:26:37.406Z,83.32
2019-03-18T11:29:07.933Z,83.30
2019-03-18T11:31:38.687Z,83.30
2019-03-18T11:34:10.735Z,83.30
2019-03-18T11:36:42.776Z,83.28
2019-03-18T11:39:13.434Z,83.30
2019-03-18T11:41:50.569Z,83.30
2019-03-18T11:44:20.958Z,83.29
2019-03-18T11:46:58.643Z,83.28
2019-03-18T11:49:39.168Z,83.29
2019-03-18T11:52:07.808Z,83.29
2019-03-18T11:54:38.430Z,83.27
2019-03-18T11:57:09.231Z,83.28
2019-03-18T11:59:41.104Z,83.29
2019-03-18T12:02:11.875Z,83.25
2019-03-18T12:04:44.336Z,83.27
2019-03-18T12:07:15.011Z,83.27
2019-03-18T12:09:45.716Z,83.29
2019-03-18T12:12:19.170Z,83.25
2019-03-18T12:14:49.721Z,83.25
2019-03-18T12:17:21.073Z,83.23
2019-03-18T12:19:52.236Z,83.24
2019-03-18T12:22:22.968Z,83.25
2019-03-18T12:25:11.737Z,83.24
2019-03-18T12:27:43.767Z,83.22
2019-03-18T12:30:21.813Z,83.18
2019-03-18T12:32:52.696Z,83.18
2019-03-18T12:35:23.880Z,83.16
2019-03-18T12:37:59.964Z,83.12
2019-03-18T12:40:30.976Z,83.14
2019-03-18T12:43:04.158Z,83.13
2019-03-18T12:45:34.838Z,83.12
2019-03-18T12:48:07.496Z,83.13
2019-03-18T12:50:55.387Z,83.08
2019-03-18T12:53:13.962Z,83.03
2019-03-18T12:55:47.421Z,83.03
2019-03-18T12:58:22.613Z,83.03
2019-03-18T13:00:55.412Z,82.99
2019-03-18T13:03:26.846Z,82.97
2019-03-18T13:05:58.624Z,82.96
2019-03-18T13:08:29.577Z,82.96
2019-03-18T13:11:08.799Z,82.94
2019-03-18T13:13:35.273Z,82.96
2019-03-18T13:16:07.478Z,82.95
2019-03-18T13:18:40.768Z,82.96
2019-03-18T13:21:13.280Z,82.94
2019-03-18T13:23:45.538Z,82.95
2019-03-18T13:26:16.298Z,82.92
2019-03-18T13:28:47.257Z,82.93
2019-03-18T13:31:18.910Z,82.91
2019-03-18T13:33:49.792Z,82.88
2019-03-18T13:36:25.185Z,82.87
2019-03-18T13:39:04.449Z,82.84
2019-03-18T13:41:40.332Z,82.83
2019-03-18T13:44:23.908Z,82.81
2019-03-18T13:47:07.183Z,82.80
2019-03-18T13:49:44.068Z,82.78
2019-03-18T13:52:21.671Z,82.76
2019-03-18T13:54:57.244Z,82.77
2019-03-18T14:01:06.320Z,82.73
2019-03-18T14:37:31.154Z,82.65
2019-03-18T14:40:21.620Z,82.62
2019-03-18T14:43:56.718Z,82.60
2019-03-18T14:46:13.788Z,82.59
2019-03-18T14:48:47.629Z,82.57
2019-03-18T14:51:21.497Z,82.55
2019-03-18T14:53:57.311Z,82.55
2019-03-18T14:56:28.523Z,82.52
2019-03-18T14:59:00.316Z,82.51
2019-03-18T15:01:31.263Z,82.50
2019-03-18T15:04:02.312Z,82.47
2019-03-18T15:06:33.606Z,82.43
2019-03-18T15:09:04.187Z,82.40
2019-03-18T15:11:35.300Z,82.37
2019-03-18T15:14:06.018Z,82.33
2019-03-18T15:16:36.550Z,82.30
2019-03-18T15:19:07.147Z,82.27
2019-03-18T15:21:38.236Z,82.26
2019-03-18T15:24:16.802Z,82.24
2019-03-18T15:26:48.546Z,82.22
2019-03-18T15:29:19.076Z,82.20
2019-03-18T15:31:53.609Z,82.17
2019-03-18T15:34:26.004Z,82.15
2019-03-18T15:36:56.399Z,82.13
2019-03-18T15:39:26.942Z,82.09
2019-03-18T15:41:57.440Z,82.08
2019-03-18T15:44:29.449Z,82.03
2019-03-18T15:47:03.198Z,82.02
2019-03-18T15:49:34.030Z,82.04
2019-03-18T15:52:11.024Z,82.00
2019-03-18T15:54:53.827Z,82.05
2019-03-18T15:57:29.614Z,82.05
2019-03-18T15:59:57.332Z,81.92
2019-03-18T16:02:31.356Z,81.81
2019-03-18T16:08:28.594Z,81.86
2019-03-18T16:11:01.037Z,81.83
2019-03-18T16:13:40.475Z,81.83
2019-03-18T16:16:24.142Z,81.82
2019-03-18T16:19:05.638Z,81.81
2019-03-18T16:21:44.587Z,81.79
2019-03-18T16:24:17.226Z,81.79
2019-03-18T16:26:48.182Z,81.76
2019-03-18T16:29:31.456Z,81.75
2019-03-18T16:32:12.474Z,81.74
2019-03-18T16:34:46.108Z,81.73
2019-03-18T16:37:16.951Z,81.69
2019-03-18T16:39:48.414Z,81.66
2019-03-18T16:42:24.665Z,81.67
2019-03-18T16:44:57.959Z,81.65
2019-03-18T16:47:31.257Z,81.65
2019-03-18T16:50:01.827Z,81.63
2019-03-18T16:52:37.597Z,81.62
2019-03-18T16:55:09.249Z,81.61
2019-03-18T16:57:45.106Z,81.58
2019-03-18T17:00:29.859Z,81.58
2019-03-18T17:03:02.368Z,81.57
2019-03-18T17:05:47.626Z,81.53
2019-03-18T17:08:18.572Z,81.53
2019-03-18T17:10:50.836Z,81.50
2019-03-18T17:13:22.767Z,81.50
2019-03-18T17:15:53.611Z,81.47
2019-03-18T17:18:26.477Z,81.47
2019-03-18T17:20:59.701Z,81.48
2019-03-18T17:23:31.031Z,81.48
2019-03-18T17:26:05.690Z,81.47
2019-03-18T17:28:38.571Z,81.45
2019-03-18T17:31:09.187Z,81.44
2019-03-18T17:37:18.326Z,81.45
2019-03-18T17:40:05.411Z,81.41
2019-03-18T17:56:11.823Z,81.35
2019-03-18T17:58:50.573Z,81.39
2019-03-18T18:01:39.809Z,81.35
2019-03-18T18:04:35.845Z,81.34
2019-03-18T18:14:38.157Z,81.34
2019-03-18T18:17:43.606Z,81.34
2019-03-18T18:20:58.298Z,81.33
2019-03-18T18:23:34.909Z,81.33
2019-03-18T18:26:25.865Z,81.31
2019-03-18T18:29:39.184Z,81.32
2019-03-18T18:32:21.668Z,81.33
2019-03-18T18:38:54.016Z,81.32
2019-03-18T18:41:55.624Z,81.33
2019-03-18T18:50:26.872Z,81.33
2019-03-18T18:56:44.219Z,81.30
2019-03-18T19:07:06.973Z,81.30
2019-03-18T19:10:28.947Z,81.30
2019-03-18T19:17:43.072Z,81.30
2019-03-18T19:28:11.570Z,81.33
2019-03-18T19:31:18.131Z,81.33
2019-03-18T19:34:01.032Z,81.31
2019-03-18T19:36:47.037Z,81.32
2019-03-18T19:39:28.982Z,81.31
2019-03-18T19:42:21.123Z,81.34
2019-03-18T19:45:08.247Z,81.34
2019-03-18T19:55:18.934Z,81.33
2019-03-18T19:58:15.274Z,81.31
2019-03-18T20:18:38.715Z,81.34
2019-03-18T20:20:23.103Z,81.34
2019-03-18T20:22:57.980Z,81.35
2019-03-18T20:25:59.823Z,81.36
2019-03-18T20:29:31.416Z,81.36
2019-03-18T20:32:41.911Z,81.38
2019-03-18T20:35:57.399Z,81.35
2019-03-18T20:42:03.750Z,81.37
2019-03-18T20:45:34.196Z,81.38
2019-03-18T20:53:55.240Z,81.39
2019-03-18T20:56:44.860Z,81.38
2019-03-18T21:04:53.730Z,81.39
2019-03-18T21:08:06.739Z,81.40
2019-03-18T21:11:26.423Z,81.40
2019-03-18T21:17:11.982Z,81.41
2019-03-18T21:20:08.728Z,81.41
2019-03-18T21:22:46.245Z,81.41
2019-03-18T21:25:38.716Z,81.40
2019-03-18T21:28:41.139Z,81.40
2019-03-18T21:31:17.026Z,81.41
2019-03-18T21:33:50.555Z,81.42
2019-03-18T21:37:12.684Z,81.42
2019-03-18T21:39:56.936Z,81.42
2019-03-18T21:42:30.253Z,81.42
2019-03-18T21:45:32.944Z,81.41
2019-03-18T21:48:03.648Z,81.43
2019-03-18T21:50:34.214Z,81.42
2019-03-18T21:53:38.785Z,81.42
2019-03-18T21:56:47.440Z,81.42
2019-03-18T21:59:50.362Z,81.42
2019-03-18T22:02:34.128Z,81.42
2019-03-18T22:05:25.693Z,81.42
2019-03-18T22:08:23.824Z,81.44
2019-03-18T22:10:54.961Z,81.44
2019-03-18T22:13:25.748Z,81.45
2019-03-18T22:15:59.628Z,81.44
2019-03-18T22:18:31.567Z,81.44
2019-03-18T22:21:02.928Z,81.43
2019-03-18T22:23:36.157Z,81.46
2019-03-18T22:26:12.502Z,81.46
2019-03-18T22:28:57.034Z,81.44
2019-03-18T22:31:27.721Z,81.48
2019-03-18T22:33:58.883Z,81.47
2019-03-18T22:36:29.584Z,81.46
2019-03-18T22:39:01.492Z,81.49
2019-03-18T22:41:36.226Z,81.49
2019-03-18T22:44:14.620Z,81.48
2019-03-18T22:46:46.939Z,81.47
2019-03-18T22:49:31.362Z,81.49
2019-03-18T22:52:12.777Z,81.50
2019-03-18T22:54:43.711Z,81.49
2019-03-18T22:57:14.738Z,81.50
2019-03-18T22:59:48.285Z,81.52
2019-03-18T23:02:22.476Z,81.51
2019-03-18T23:04:52.927Z,81.51
2019-03-18T23:07:53.049Z,81.52
2019-03-18T23:10:27.243Z,81.52
2019-03-18T23:12:59.387Z,81.53
2019-03-18T23:15:36.904Z,81.53
2019-03-18T23:18:09.255Z,81.54
2019-03-18T23:20:46.212Z,81.53
2019-03-18T23:23:20.517Z,81.55
2019-03-18T23:25:57.987Z,81.54
2019-03-18T23:28:47.268Z,81.54
2019-03-18T23:31:18.131Z,81.54
2019-03-18T23:34:04.711Z,81.54
2019-03-18T23:37:02.707Z,81.56
2019-03-18T23:39:43.494Z,81.57
2019-03-18T23:42:14.366Z,81.57
2019-03-18T23:44:45.007Z,81.58
2019-03-18T23:47:16.110Z,81.57
2019-03-18T23:49:49.728Z,81.59
2019-03-18T23:52:23.544Z,81.58
2019-03-18T23:54:54.272Z,81.57
2019-03-18T23:57:24.969Z,81.58
2019-03-18T23:59:55.743Z,81.59
